createdAt,value
2018-05-17T00:00:02.469Z,13.60
2018-05-17T00:02:31.063Z,13.50
2018-05-17T00:04:59.501Z,13.41
2018-05-17T00:07:27.924Z,13.32
2018-05-17T00:09:56.408Z,13.23
2018-05-17T00:12:24.830Z,13.32
2018-05-17T00:14:53.268Z,13.36
2018-05-17T00:17:21.738Z,13.34
2018-05-17T00:19:50.182Z,13.37
2018-05-17T00:22:18.632Z,13.38
2018-05-17T00:24:47.125Z,13.42
2018-05-17T00:27:15.563Z,13.31
2018-05-17T00:29:43.977Z,13.27
2018-05-17T00:32:12.453Z,13.16
2018-05-17T00:34:40.880Z,13.16
2018-05-17T00:37:09.300Z,13.22
2018-05-17T00:39:37.794Z,13.23
2018-05-17T00:42:06.252Z,13.14
2018-05-17T00:44:34.686Z,13.11
2018-05-17T00:47:03.224Z,13.13
2018-05-17T00:49:31.687Z,13.09
2018-05-17T00:52:00.122Z,13.02
2018-05-17T00:54:28.584Z,12.87
2018-05-17T00:56:57.029Z,12.88
2018-05-17T00:59:25.465Z,12.92
2018-05-17T01:01:53.933Z,12.94
2018-05-17T01:04:22.358Z,12.92
2018-05-17T01:06:50.807Z,12.98
2018-05-17T01:09:19.273Z,12.95
2018-05-17T01:11:47.709Z,12.90
2018-05-17T01:14:16.136Z,12.77
2018-05-17T01:16:44.613Z,12.72
2018-05-17T01:19:13.032Z,12.74
2018-05-17T01:21:41.468Z,12.70
2018-05-17T01:24:09.946Z,12.67
2018-05-17T01:26:38.374Z,12.69
2018-05-17T01:29:06.803Z,12.63
2018-05-17T01:31:35.269Z,12.65
2018-05-17T01:34:03.728Z,12.62
2018-05-17T01:36:32.212Z,12.50
2018-05-17T01:39:00.699Z,12.44
2018-05-17T01:41:29.136Z,12.36
2018-05-17T01:43:57.580Z,12.41
2018-05-17T01:46:26.893Z,12.32
2018-05-17T01:48:55.340Z,12.35
2018-05-17T01:51:23.772Z,12.37
2018-05-17T01:53:52.313Z,12.39
2018-05-17T01:56:21.571Z,12.26
2018-05-17T01:58:50.066Z,12.26
2018-05-17T02:01:18.569Z,12.23
2018-05-17T02:03:47.019Z,12.21
2018-05-17T02:06:15.452Z,12.23
2018-05-17T02:08:43.951Z,12.13
2018-05-17T02:11:12.406Z,12.11
2018-05-17T02:13:40.837Z,12.10
2018-05-17T02:16:09.324Z,12.12
2018-05-17T02:18:37.758Z,12.11
2018-05-17T02:21:06.190Z,12.15
2018-05-17T02:23:34.663Z,12.14
2018-05-17T02:26:03.116Z,12.18
2018-05-17T02:28:31.548Z,12.13
2018-05-17T02:31:00.016Z,12.19
2018-05-17T02:33:28.450Z,12.18
2018-05-17T02:35:56.891Z,12.09
2018-05-17T02:38:25.390Z,12.11
2018-05-17T02:40:53.836Z,12.18
2018-05-17T02:43:22.271Z,12.07
2018-05-17T02:45:50.793Z,12.02
2018-05-17T02:48:19.226Z,12.02
2018-05-17T02:50:47.671Z,12.03
2018-05-17T02:53:16.161Z,12.02
2018-05-17T02:55:44.608Z,12.06
2018-05-17T02:58:13.055Z,11.97
2018-05-17T03:00:41.578Z,12.03
2018-05-17T03:03:10.010Z,11.96
2018-05-17T03:05:38.471Z,12.06
2018-05-17T03:08:06.944Z,11.98
2018-05-17T03:10:35.379Z,11.99
2018-05-17T03:13:03.839Z,12.06
2018-05-17T03:15:32.335Z,12.07
2018-05-17T03:18:00.771Z,12.00
2018-05-17T03:20:29.202Z,11.98
2018-05-17T03:22:57.676Z,11.85
2018-05-17T03:25:26.116Z,11.84
2018-05-17T03:27:54.564Z,11.84
2018-05-17T03:30:23.040Z,11.83
2018-05-17T03:32:51.528Z,11.81
2018-05-17T03:35:19.956Z,11.72
2018-05-17T03:37:48.436Z,11.80
2018-05-17T03:40:16.871Z,11.79
2018-05-17T03:42:45.307Z,11.79
2018-05-17T03:45:13.784Z,11.78
2018-05-17T03:47:42.230Z,11.61
2018-05-17T03:50:10.681Z,11.68
2018-05-17T03:52:39.149Z,11.62
2018-05-17T03:55:07.588Z,11.62
2018-05-17T03:57:36.013Z,11.59
2018-05-17T04:00:04.524Z,11.55
2018-05-17T04:02:44.688Z,11.55
2018-05-17T04:05:24.948Z,11.59
2018-05-17T04:07:53.390Z,11.43
2018-05-17T04:10:21.825Z,11.57
2018-05-17T04:12:50.301Z,11.48
2018-05-17T04:15:18.737Z,11.47
2018-05-17T04:17:47.169Z,11.47
2018-05-17T04:20:15.664Z,11.44
2018-05-17T04:22:44.090Z,11.31
2018-05-17T04:25:12.524Z,11.38
2018-05-17T04:27:41.001Z,11.49
2018-05-17T04:30:09.435Z,11.45
2018-05-17T04:32:37.871Z,11.38
2018-05-17T04:35:06.371Z,11.31
2018-05-17T04:37:34.796Z,11.35
2018-05-17T04:40:03.261Z,11.30
2018-05-17T04:42:31.740Z,11.26
2018-05-17T04:45:00.164Z,11.28
2018-05-17T04:47:28.584Z,11.35
2018-05-17T04:49:57.073Z,11.31
2018-05-17T04:52:25.500Z,11.34
2018-05-17T04:54:53.944Z,11.31
2018-05-17T04:57:22.420Z,11.34
2018-05-17T04:59:50.856Z,11.31
2018-05-17T05:02:19.304Z,11.25
2018-05-17T05:04:47.797Z,11.24
2018-05-17T05:07:16.253Z,11.24
2018-05-17T05:09:44.693Z,11.12
2018-05-17T05:12:13.188Z,11.17
2018-05-17T05:14:41.649Z,11.29
2018-05-17T05:17:10.068Z,11.37
2018-05-17T05:19:38.576Z,11.44
2018-05-17T05:22:07.016Z,11.40
2018-05-17T05:24:35.460Z,11.42
2018-05-17T05:27:03.940Z,11.26
2018-05-17T05:29:32.379Z,11.32
2018-05-17T05:32:00.818Z,11.43
2018-05-17T05:34:29.303Z,11.37
2018-05-17T05:36:57.724Z,11.47
2018-05-17T05:39:26.161Z,11.53
2018-05-17T05:41:54.647Z,11.39
2018-05-17T05:44:23.081Z,11.51
2018-05-17T05:46:51.515Z,11.53
2018-05-17T05:49:20.058Z,11.63
2018-05-17T05:51:48.444Z,11.64
2018-05-17T05:54:16.869Z,11.60
2018-05-17T05:56:45.353Z,11.68
2018-05-17T05:59:13.820Z,11.65
2018-05-17T06:01:42.257Z,11.60
2018-05-17T06:04:10.727Z,11.48
2018-05-17T06:06:39.154Z,11.53
2018-05-17T06:09:07.598Z,11.59
2018-05-17T06:11:36.061Z,11.62
2018-05-17T06:14:04.497Z,11.64
2018-05-17T06:16:32.922Z,11.62
2018-05-17T06:19:01.388Z,11.70
2018-05-17T06:21:29.817Z,11.62
2018-05-17T06:23:58.238Z,11.75
2018-05-17T06:26:26.765Z,11.70
2018-05-17T06:28:55.205Z,11.68
2018-05-17T06:31:23.643Z,11.65
2018-05-17T06:33:52.160Z,11.58
2018-05-17T06:36:20.589Z,11.73
2018-05-17T06:38:49.010Z,11.75
2018-05-17T06:41:17.476Z,11.78
2018-05-17T06:43:45.916Z,11.86
2018-05-17T06:46:14.361Z,11.88
2018-05-17T06:48:42.831Z,11.92
2018-05-17T06:51:11.270Z,11.89
2018-05-17T06:53:39.692Z,11.95
2018-05-17T06:56:08.176Z,12.01
2018-05-17T06:58:36.591Z,11.97
2018-05-17T07:01:05.056Z,12.13
2018-05-17T07:03:33.524Z,12.04
2018-05-17T07:06:01.944Z,12.09
2018-05-17T07:08:30.412Z,12.23
2018-05-17T07:10:58.895Z,12.12
2018-05-17T07:13:27.313Z,12.04
2018-05-17T07:15:55.756Z,12.15
2018-05-17T07:18:24.356Z,12.15
2018-05-17T07:20:52.688Z,12.11
2018-05-17T07:23:21.113Z,12.07
2018-05-17T07:25:49.589Z,12.07
2018-05-17T07:28:18.005Z,12.14
2018-05-17T07:30:46.420Z,12.19
2018-05-17T07:33:14.926Z,12.25
2018-05-17T07:35:43.348Z,12.25
2018-05-17T07:38:11.769Z,12.37
2018-05-17T07:40:40.231Z,12.53
2018-05-17T07:43:08.669Z,12.60
2018-05-17T07:45:37.097Z,12.60
2018-05-17T07:48:05.584Z,12.53
2018-05-17T07:50:34.022Z,12.63
2018-05-17T07:53:02.452Z,12.77
2018-05-17T07:55:31.024Z,12.97
2018-05-17T07:57:59.425Z,13.10
2018-05-17T08:00:27.908Z,13.25
2018-05-17T08:02:56.372Z,13.62
2018-05-17T08:05:24.789Z,13.85
2018-05-17T08:07:53.212Z,14.06
2018-05-17T08:10:21.693Z,14.14
2018-05-17T08:12:50.128Z,14.16
2018-05-17T08:15:18.558Z,14.06
2018-05-17T08:17:47.034Z,13.91
2018-05-17T08:20:15.461Z,13.91
2018-05-17T08:22:43.888Z,13.90
2018-05-17T08:25:12.365Z,13.73
2018-05-17T08:27:40.782Z,13.72
2018-05-17T08:30:09.220Z,13.71
2018-05-17T08:32:37.691Z,13.71
2018-05-17T08:35:06.136Z,13.77
2018-05-17T08:37:34.575Z,13.71
2018-05-17T08:40:03.065Z,13.76
2018-05-17T08:42:31.588Z,13.95
2018-05-17T08:44:59.948Z,13.97
2018-05-17T08:47:28.409Z,14.29
2018-05-17T08:49:56.832Z,14.33
2018-05-17T08:52:25.272Z,14.59
2018-05-17T08:54:53.744Z,14.61
2018-05-17T08:57:22.173Z,14.57
2018-05-17T08:59:50.673Z,14.67
2018-05-17T09:02:19.127Z,14.65
2018-05-17T09:04:47.563Z,14.69
2018-05-17T09:07:16.026Z,14.67
2018-05-17T09:09:44.501Z,14.76
2018-05-17T09:12:12.933Z,14.72
2018-05-17T09:14:41.356Z,14.86
2018-05-17T09:17:09.833Z,14.81
2018-05-17T09:19:38.281Z,14.72
2018-05-17T09:22:06.720Z,14.88
2018-05-17T09:24:35.183Z,14.85
2018-05-17T09:27:03.608Z,15.10
2018-05-17T09:29:32.044Z,15.12
2018-05-17T09:32:00.528Z,15.17
2018-05-17T09:34:28.968Z,15.12
2018-05-17T09:36:57.456Z,15.21
2018-05-17T09:39:25.952Z,15.23
2018-05-17T09:41:54.385Z,15.29
2018-05-17T09:44:22.805Z,15.22
2018-05-17T09:46:51.283Z,15.10
2018-05-17T09:49:19.720Z,15.12
2018-05-17T09:51:48.157Z,15.34
2018-05-17T09:54:16.634Z,15.30
2018-05-17T09:56:45.061Z,15.09
2018-05-17T09:59:13.496Z,15.27
2018-05-17T10:01:42.016Z,15.54
2018-05-17T10:04:10.487Z,15.66
2018-05-17T10:06:38.950Z,15.59
2018-05-17T10:09:07.446Z,15.77
2018-05-17T10:11:35.880Z,16.01
2018-05-17T10:14:04.319Z,16.20
2018-05-17T10:16:32.806Z,16.26
2018-05-17T10:19:01.224Z,16.43
2018-05-17T10:21:29.657Z,16.55
2018-05-17T10:23:58.120Z,16.52
2018-05-17T10:26:26.540Z,16.67
2018-05-17T10:28:54.960Z,16.56
2018-05-17T10:31:23.425Z,16.55
2018-05-17T10:33:51.858Z,16.52
2018-05-17T10:36:20.280Z,16.41
2018-05-17T10:38:48.752Z,16.25
2018-05-17T10:41:17.176Z,16.39
2018-05-17T10:43:45.600Z,16.53
2018-05-17T10:46:14.066Z,16.77
2018-05-17T10:48:42.484Z,16.91
2018-05-17T10:51:10.917Z,16.94
2018-05-17T10:53:39.384Z,17.01
2018-05-17T10:56:07.819Z,17.21
2018-05-17T10:58:36.252Z,17.38
2018-05-17T11:01:04.740Z,17.18
2018-05-17T11:03:33.164Z,17.22
2018-05-17T11:06:01.587Z,17.32
2018-05-17T11:08:30.054Z,17.41
2018-05-17T11:10:58.476Z,17.49
2018-05-17T11:13:26.908Z,17.85
2018-05-17T11:15:55.380Z,18.13
2018-05-17T11:18:23.802Z,18.06
2018-05-17T11:20:52.219Z,18.18
2018-05-17T11:23:20.675Z,18.41
2018-05-17T11:25:49.144Z,18.43
2018-05-17T11:28:17.548Z,18.48
2018-05-17T11:30:46.025Z,18.59
2018-05-17T11:33:14.469Z,18.69
2018-05-17T11:35:42.881Z,18.82
2018-05-17T11:38:11.373Z,18.86
2018-05-17T11:40:39.804Z,19.04
2018-05-17T11:43:08.243Z,19.17
2018-05-17T11:45:36.730Z,19.30
2018-05-17T11:48:05.159Z,19.32
2018-05-17T11:50:33.593Z,19.44
2018-05-17T11:53:02.061Z,19.34
2018-05-17T11:55:30.489Z,19.57
2018-05-17T11:57:58.928Z,19.59
2018-05-17T12:00:27.404Z,19.58
2018-05-17T12:02:55.858Z,19.76
2018-05-17T12:05:24.288Z,19.74
2018-05-17T12:07:52.761Z,19.90
2018-05-17T12:10:21.176Z,20.28
2018-05-17T12:12:49.607Z,20.48
2018-05-17T12:15:18.083Z,20.64
2018-05-17T12:17:46.504Z,20.52
2018-05-17T12:20:14.928Z,20.49
2018-05-17T12:22:43.398Z,20.67
2018-05-17T12:25:11.832Z,20.76
2018-05-17T12:27:40.264Z,20.97
2018-05-17T12:30:08.729Z,20.91
2018-05-17T12:32:37.156Z,20.77
2018-05-17T12:35:05.628Z,20.74
2018-05-17T12:37:34.129Z,20.43
2018-05-17T12:40:02.568Z,20.32
2018-05-17T12:42:30.996Z,20.49
2018-05-17T12:44:59.457Z,20.56
2018-05-17T12:47:27.885Z,20.45
2018-05-17T12:49:56.318Z,20.67
2018-05-17T12:52:24.788Z,20.57
2018-05-17T12:54:53.208Z,20.45
2018-05-17T12:57:21.640Z,20.27
2018-05-17T12:59:50.130Z,20.37
2018-05-17T13:02:18.570Z,20.40
2018-05-17T13:04:46.992Z,20.72
2018-05-17T13:07:15.457Z,20.59
2018-05-17T13:09:43.884Z,20.63
2018-05-17T13:12:12.300Z,20.49
2018-05-17T13:14:40.783Z,20.77
2018-05-17T13:17:09.212Z,20.67
2018-05-17T13:19:37.637Z,20.92
2018-05-17T13:22:06.095Z,21.06
2018-05-17T13:24:34.513Z,21.22
2018-05-17T13:27:02.943Z,21.03
2018-05-17T13:29:31.400Z,21.16
2018-05-17T13:31:59.826Z,21.29
2018-05-17T13:34:28.251Z,21.30
2018-05-17T13:36:56.724Z,21.39
2018-05-17T13:39:25.153Z,21.60
2018-05-17T13:41:53.599Z,21.83
2018-05-17T13:44:22.077Z,21.82
2018-05-17T13:46:50.497Z,21.65
2018-05-17T13:49:18.935Z,21.80
2018-05-17T13:51:47.406Z,21.93
2018-05-17T13:54:15.832Z,21.92
2018-05-17T13:56:44.260Z,22.02
2018-05-17T13:59:12.732Z,21.72
2018-05-17T14:01:41.162Z,21.63
2018-05-17T14:04:09.604Z,21.89
2018-05-17T14:06:38.192Z,21.83
2018-05-17T14:09:06.658Z,21.94
2018-05-17T14:11:35.130Z,21.93
2018-05-17T14:14:03.705Z,21.67
2018-05-17T14:16:32.108Z,21.74
2018-05-17T14:19:00.541Z,21.76
2018-05-17T14:21:29.025Z,21.27
2018-05-17T14:36:38.730Z,21.16
2018-05-17T14:39:12.500Z,20.93
2018-05-17T14:41:46.364Z,20.72
2018-05-17T14:44:20.030Z,20.56
2018-05-17T14:46:53.855Z,20.53
2018-05-17T14:49:27.787Z,20.48
2018-05-17T14:52:01.661Z,20.40
2018-05-17T14:54:35.337Z,20.20
2018-05-17T14:57:09.166Z,20.17
2018-05-17T14:59:43.119Z,19.89
2018-05-17T15:02:17.004Z,19.86
2018-05-17T15:04:50.915Z,19.76
2018-05-17T15:07:24.765Z,19.74
2018-05-17T15:09:58.645Z,19.49
2018-05-17T15:12:32.577Z,19.40
2018-05-17T15:15:06.233Z,19.37
2018-05-17T15:17:40.006Z,19.36
2018-05-17T15:20:13.655Z,19.23
2018-05-17T15:22:47.519Z,19.14
2018-05-17T15:25:21.286Z,19.08
2018-05-17T15:27:55.348Z,18.91
2018-05-17T15:30:29.152Z,18.90
2018-05-17T15:33:03.009Z,18.90
2018-05-17T15:35:36.908Z,18.85
2018-05-17T15:38:10.845Z,18.82
2018-05-17T15:40:44.663Z,18.60
2018-05-17T15:43:18.476Z,18.55
2018-05-17T15:45:52.393Z,18.55
2018-05-17T15:48:26.332Z,18.38
2018-05-17T15:51:00.013Z,18.31
2018-05-17T15:53:33.771Z,18.29
2018-05-17T15:56:07.730Z,18.35
2018-05-17T15:58:41.460Z,18.12
2018-05-17T16:01:15.249Z,18.09
2018-05-17T16:03:49.081Z,18.01
2018-05-17T16:06:22.838Z,18.09
2018-05-17T16:08:56.700Z,17.97
2018-05-17T16:11:30.585Z,17.80
2018-05-17T16:14:04.548Z,17.75
2018-05-17T16:16:38.441Z,17.74
2018-05-17T16:19:12.449Z,17.57
2018-05-17T16:21:46.115Z,17.68
2018-05-17T16:24:19.989Z,17.46
2018-05-17T16:26:53.989Z,17.49
2018-05-17T16:29:27.900Z,17.41
2018-05-17T16:32:01.774Z,17.30
2018-05-17T16:34:35.670Z,17.17
2018-05-17T16:37:09.452Z,17.16
2018-05-17T16:39:43.298Z,16.90
2018-05-17T16:42:17.190Z,16.86
2018-05-17T16:44:51.000Z,16.79
2018-05-17T16:47:24.872Z,16.74
2018-05-17T16:49:58.692Z,16.69
2018-05-17T16:52:32.508Z,16.68
2018-05-17T16:55:06.341Z,16.74
2018-05-17T16:57:40.211Z,16.66
2018-05-17T17:00:14.056Z,16.57
2018-05-17T17:02:47.981Z,16.64
2018-05-17T17:05:21.753Z,16.56
2018-05-17T17:07:55.589Z,16.42
2018-05-17T17:10:29.362Z,16.28
2018-05-17T17:13:03.298Z,16.31
2018-05-17T17:15:37.157Z,16.36
2018-05-17T17:18:11.021Z,16.21
2018-05-17T17:20:44.972Z,16.12
2018-05-17T17:23:18.728Z,16.17
2018-05-17T17:25:52.612Z,16.13
2018-05-17T17:28:26.512Z,16.03
2018-05-17T17:31:00.453Z,15.93
2018-05-17T17:33:34.287Z,15.90
2018-05-17T17:36:08.155Z,15.73
2018-05-17T17:38:41.810Z,15.73
2018-05-17T17:41:15.732Z,15.64
2018-05-17T17:43:49.690Z,15.65
2018-05-17T17:46:23.521Z,15.59
2018-05-17T17:48:57.441Z,15.65
2018-05-17T17:51:31.321Z,15.57
2018-05-17T17:54:05.252Z,15.60
2018-05-17T17:56:39.037Z,15.49
2018-05-17T17:59:13.036Z,15.46
2018-05-17T18:01:47.017Z,15.51
2018-05-17T18:04:20.830Z,15.48
2018-05-17T18:06:54.657Z,15.32
2018-05-17T18:09:28.548Z,15.38
2018-05-17T18:12:02.447Z,15.33
2018-05-17T18:14:36.419Z,15.30
2018-05-17T18:17:10.217Z,15.16
2018-05-17T18:19:43.877Z,15.05
2018-05-17T18:22:17.756Z,15.04
2018-05-17T18:24:51.814Z,15.02
2018-05-17T18:27:26.452Z,15.00
2018-05-17T18:30:00.333Z,15.00
2018-05-17T18:32:34.401Z,14.96
2018-05-17T18:35:08.230Z,14.90
2018-05-17T18:37:42.090Z,14.84
2018-05-17T18:40:15.984Z,14.76
2018-05-17T18:42:49.809Z,14.82
2018-05-17T18:45:23.645Z,14.80
2018-05-17T18:47:57.492Z,14.71
2018-05-17T18:50:31.327Z,14.66
2018-05-17T18:53:05.126Z,14.64
2018-05-17T18:55:38.965Z,14.63
2018-05-17T18:58:12.855Z,14.63
2018-05-17T19:00:41.301Z,14.61
2018-05-17T19:03:09.737Z,14.54
2018-05-17T19:05:38.246Z,14.55
2018-05-17T19:08:06.685Z,14.55
2018-05-17T19:10:35.129Z,14.56
2018-05-17T19:13:03.605Z,14.53
2018-05-17T19:15:32.049Z,14.54
2018-05-17T19:18:00.508Z,14.45
2018-05-17T19:20:29.058Z,14.51
2018-05-17T19:22:57.480Z,14.44
2018-05-17T19:25:25.901Z,14.46
2018-05-17T19:27:54.375Z,14.47
2018-05-17T19:30:22.811Z,14.38
2018-05-17T19:32:51.250Z,14.36
2018-05-17T19:35:20.397Z,14.21
2018-05-17T19:37:48.835Z,14.23
2018-05-17T19:40:17.268Z,14.17
2018-05-17T19:42:45.743Z,14.12
2018-05-17T19:45:14.179Z,14.06
2018-05-17T19:47:42.620Z,14.12
2018-05-17T19:50:11.132Z,14.09
2018-05-17T19:52:39.557Z,14.02
2018-05-17T19:55:07.993Z,14.05
2018-05-17T19:57:36.481Z,13.96
2018-05-17T20:00:04.946Z,14.00
2018-05-17T20:02:33.393Z,14.04
2018-05-17T20:05:01.975Z,14.02
2018-05-17T20:07:30.347Z,14.02
2018-05-17T20:09:58.929Z,14.05
2018-05-17T20:12:27.640Z,14.01
2018-05-17T20:14:56.352Z,13.91
2018-05-17T20:17:24.865Z,14.00
2018-05-17T20:19:53.592Z,13.93
2018-05-17T20:22:22.141Z,13.91
2018-05-17T20:24:50.806Z,13.97
2018-05-17T20:27:19.499Z,13.92
2018-05-17T20:29:47.946Z,13.95
2018-05-17T20:32:16.393Z,13.92
2018-05-17T20:34:45.053Z,14.01
2018-05-17T20:37:13.616Z,13.88
2018-05-17T20:42:33.549Z,13.79
2018-05-17T20:45:01.990Z,13.80
2018-05-17T20:47:30.428Z,13.89
2018-05-17T20:49:58.892Z,13.81
2018-05-17T20:52:27.321Z,13.85
2018-05-17T20:54:55.793Z,13.84
2018-05-17T20:57:24.269Z,13.86
2018-05-17T20:59:52.683Z,13.91
2018-05-17T21:02:21.145Z,13.89
2018-05-17T21:04:49.611Z,13.88
2018-05-17T21:07:18.042Z,13.86
2018-05-17T21:09:46.464Z,13.78
2018-05-17T21:12:14.929Z,13.82
2018-05-17T21:14:43.359Z,13.71
2018-05-17T21:17:11.776Z,13.84
2018-05-17T21:19:40.256Z,13.82
2018-05-17T21:22:08.680Z,13.84
2018-05-17T21:24:37.105Z,13.79
2018-05-17T21:27:05.595Z,13.76
2018-05-17T21:29:34.040Z,13.78
2018-05-17T21:32:02.472Z,13.74
2018-05-17T21:34:30.960Z,13.79
2018-05-17T21:36:59.389Z,13.75
2018-05-17T21:39:27.827Z,13.59
2018-05-17T21:41:56.300Z,13.58
2018-05-17T21:44:24.751Z,13.55
2018-05-17T21:46:53.176Z,13.59
2018-05-17T21:49:21.636Z,13.44
2018-05-17T21:51:50.061Z,13.44
2018-05-17T21:54:18.485Z,13.46
2018-05-17T21:56:46.956Z,13.42
2018-05-17T21:59:15.397Z,13.37
2018-05-17T22:01:44.548Z,13.33
2018-05-17T22:04:13.014Z,13.30
2018-05-17T22:06:41.445Z,13.35
2018-05-17T22:09:09.860Z,13.34
2018-05-17T22:11:38.346Z,13.39
2018-05-17T22:14:06.774Z,13.39
2018-05-17T22:16:35.237Z,13.37
2018-05-17T22:19:03.749Z,13.30
2018-05-17T22:21:32.291Z,13.29
2018-05-17T22:24:00.712Z,13.27
2018-05-17T22:26:29.184Z,13.25
2018-05-17T22:28:57.624Z,13.30
2018-05-17T22:31:26.074Z,13.32
2018-05-17T22:33:54.569Z,13.31
2018-05-17T22:36:23.012Z,13.36
2018-05-17T22:38:51.457Z,13.31
2018-05-17T22:41:19.974Z,13.24
2018-05-17T22:43:48.430Z,13.17
2018-05-17T22:46:16.879Z,13.12
2018-05-17T22:48:46.175Z,13.24
2018-05-17T22:51:14.628Z,13.13
2018-05-17T22:53:43.059Z,13.16
2018-05-17T22:59:06.482Z,13.04
2018-05-17T23:01:34.948Z,13.05
2018-05-17T23:04:03.390Z,12.98
2018-05-17T23:06:31.832Z,12.99
2018-05-17T23:09:00.296Z,12.95
2018-05-17T23:11:28.756Z,12.97
2018-05-17T23:13:57.182Z,12.91
2018-05-17T23:16:25.664Z,12.85
2018-05-17T23:18:54.084Z,12.80
2018-05-17T23:21:22.525Z,12.76
2018-05-17T23:23:51.009Z,12.77
2018-05-17T23:26:19.432Z,12.78
2018-05-17T23:28:47.874Z,12.80
2018-05-17T23:31:16.376Z,12.76
2018-05-17T23:33:44.813Z,12.72
2018-05-17T23:36:13.257Z,12.74
2018-05-17T23:38:41.729Z,12.70
2018-05-17T23:41:21.872Z,12.69
2018-05-17T23:43:50.348Z,12.68
2018-05-17T23:46:18.783Z,12.64
2018-05-17T23:48:47.205Z,12.60
2018-05-17T23:51:15.673Z,12.61
2018-05-17T23:53:44.097Z,12.55
2018-05-17T23:56:12.532Z,12.57
2018-05-17T23:58:41.033Z,12.55
